Time;durP1;ratioP1;P1;durP2;ratioP2;P2;SDS_P1;SDS_P2;PMS_P1;PMS_P2;Temp;Humidity;BMP_temperature;BMP_pressure;BME280_temperature;BME280_humidity;BME280_pressure;Samples;Min_cycle;Max_cycle;Signal;HPM_P1;HPM_P2
2023/06/08 00:02:23;;;;;;;15.13;6.75;;;11.90;99.90;;;;;;5013842;28;20041;-73
2023/06/08 00:04:50;;;;;;;18.80;6.68;;;11.90;99.90;;;;;;5015045;28;20044;-74
2023/06/08 00:07:16;;;;;;;18.60;6.65;;;11.90;99.90;;;;;;5013385;28;20507;-73
2023/06/08 00:09:44;;;;;;;20.92;6.53;;;12.10;99.90;;;;;;5030378;28;20041;-74
2023/06/08 00:12:11;;;;;;;22.67;7.72;;;11.90;99.90;;;;;;5016044;28;20581;-73
2023/06/08 00:14:38;;;;;;;17.50;7.90;;;11.90;99.90;;;;;;5015676;28;20561;-73
2023/06/08 00:17:05;;;;;;;20.30;8.55;;;11.90;99.90;;;;;;5015977;28;20053;-73
2023/06/08 00:19:32;;;;;;;24.25;9.68;;;11.90;99.90;;;;;;5028124;28;20040;-74
2023/06/08 00:21:59;;;;;;;23.23;8.77;;;11.90;99.90;;;;;;5013976;28;20045;-73
2023/06/08 00:24:25;;;;;;;19.88;7.90;;;11.90;99.90;;;;;;5013632;28;20064;-73
2023/06/08 00:26:51;;;;;;;24.17;8.75;;;11.90;99.90;;;;;;5028479;28;20115;-73
2023/06/08 00:29:17;;;;;;;15.88;8.43;;;11.90;99.90;;;;;;5029229;28;20133;-73
2023/06/08 00:31:43;;;;;;;20.85;8.95;;;11.80;99.90;;;;;;5013506;28;20045;-73
2023/06/08 00:34:08;;;;;;;23.60;9.75;;;11.90;99.90;;;;;;5015480;28;20034;-73
2023/06/08 00:36:34;;;;;;;24.52;10.55;;;11.90;99.90;;;;;;5015666;28;20058;-74
2023/06/08 00:39:00;;;;;;;20.83;9.93;;;11.90;99.90;;;;;;5004333;28;20048;-74
2023/06/08 00:41:25;;;;;;;18.38;9.38;;;11.90;99.90;;;;;;5034554;28;20564;-74
2023/06/08 00:43:51;;;;;;;25.38;11.07;;;11.90;99.90;;;;;;5014821;28;20091;-73
2023/06/08 00:46:18;;;;;;;21.40;10.57;;;11.80;99.90;;;;;;5016579;28;20418;-72
2023/06/08 00:48:44;;;;;;;27.13;11.40;;;11.80;99.90;;;;;;5029131;28;20509;-73
2023/06/08 00:51:12;;;;;;;24.42;10.95;;;11.90;99.90;;;;;;5014011;28;20041;-74
2023/06/08 00:53:38;;;;;;;22.45;10.27;;;11.80;99.90;;;;;;5014972;28;20045;-73
2023/06/08 00:56:06;;;;;;;18.52;10.65;;;11.80;99.90;;;;;;5016539;28;20141;-73
2023/06/08 00:58:33;;;;;;;20.75;9.32;;;11.80;99.90;;;;;;5005577;28;20098;-73
2023/06/08 01:01:01;;;;;;;19.63;10.18;;;11.80;99.90;;;;;;5016786;28;20134;-74
2023/06/08 01:03:38;;;;;;;23.10;11.15;;;11.80;99.90;;;;;;5012863;28;20034;-72
2023/06/08 01:06:07;;;;;;;24.05;10.68;;;11.80;99.90;;;;;;5012569;28;20386;-73
2023/06/08 01:08:48;;;;;;;21.02;11.20;;;11.80;99.90;;;;;;5007813;28;20037;-73
2023/06/08 01:11:32;;;;;;;23.38;10.95;;;11.80;99.90;;;;;;5009685;28;20057;-74
2023/06/08 01:14:24;;;;;;;25.02;11.95;;;11.80;99.90;;;;;;5010631;28;20049;-72
2023/06/08 01:16:54;;;;;;;21.63;10.95;;;11.80;99.90;;;;;;5015016;28;20064;-73
2023/06/08 01:19:47;;;;;;;27.77;11.25;;;11.80;99.90;;;;;;5009278;28;20041;-74
2023/06/08 01:22:26;;;;;;;25.27;11.35;;;12.00;99.90;;;;;;5011688;28;20042;-73
2023/06/08 01:24:59;;;;;;;24.35;10.63;;;11.80;99.90;;;;;;5009695;28;20048;-74
2023/06/08 01:27:29;;;;;;;20.17;7.85;;;11.80;99.90;;;;;;5017693;28;20565;-73
2023/06/08 01:29:55;;;;;;;18.95;7.10;;;11.80;99.90;;;;;;5010302;28;20559;-73
2023/06/08 01:32:20;;;;;;;20.60;7.07;;;11.80;99.90;;;;;;5012644;28;20860;-72
2023/06/08 01:34:47;;;;;;;18.67;6.70;;;11.80;99.90;;;;;;5013779;28;20112;-72
2023/06/08 01:37:19;;;;;;;16.13;6.68;;;11.80;99.90;;;;;;5011597;28;20045;-73
2023/06/08 01:40:00;;;;;;;19.00;7.45;;;11.70;99.90;;;;;;5024246;28;20049;-67
2023/06/08 01:42:28;;;;;;;21.42;8.38;;;11.70;99.90;;;;;;5011374;28;20041;-68
2023/06/08 01:45:00;;;;;;;15.75;6.97;;;11.70;99.90;;;;;;5026597;28;20045;-68
2023/06/08 01:47:33;;;;;;;19.80;7.28;;;11.70;99.90;;;;;;5012688;28;20065;-68
2023/06/08 01:50:01;;;;;;;21.85;7.07;;;11.70;99.90;;;;;;5015259;28;20041;-68
2023/06/08 01:52:27;;;;;;;20.35;7.00;;;11.70;99.90;;;;;;5016435;28;20083;-68
2023/06/08 01:54:53;;;;;;;16.33;6.72;;;11.80;99.90;;;;;;5010873;28;20156;-68
2023/06/08 01:57:18;;;;;;;18.88;8.00;;;11.70;99.90;;;;;;5031673;28;20068;-69
2023/06/08 01:59:44;;;;;;;18.63;7.03;;;11.70;99.90;;;;;;5000437;28;20045;-68
2023/06/08 02:02:10;;;;;;;16.95;6.15;;;11.70;99.90;;;;;;5033705;28;20542;-68
2023/06/08 02:04:36;;;;;;;17.45;6.50;;;11.70;99.90;;;;;;5019944;28;20045;-68
2023/06/08 02:07:01;;;;;;;24.50;7.25;;;11.70;99.90;;;;;;5003335;28;20129;-68
2023/06/08 02:09:27;;;;;;;14.50;7.38;;;11.70;99.90;;;;;;5033400;28;20080;-68
2023/06/08 02:12:07;;;;;;;22.05;8.02;;;11.80;99.90;;;;;;5017638;28;20064;-68
2023/06/08 02:14:33;;;;;;;19.30;9.27;;;11.70;99.90;;;;;;5018930;28;20081;-68
2023/06/08 02:17:00;;;;;;;20.55;10.45;;;11.70;99.90;;;;;;5033771;28;20053;-68
2023/06/08 02:19:26;;;;;;;28.73;10.43;;;11.70;99.90;;;;;;5015187;28;20073;-68
2023/06/08 02:21:54;;;;;;;24.73;10.15;;;11.70;99.90;;;;;;5018476;28;20577;-67
2023/06/08 02:24:20;;;;;;;23.42;11.40;;;11.70;99.90;;;;;;5022329;28;20527;-68
2023/06/08 02:26:48;;;;;;;22.52;10.88;;;11.70;99.90;;;;;;5009439;28;20045;-68
2023/06/08 02:29:13;;;;;;;19.38;8.75;;;11.70;99.90;;;;;;5015089;28;20398;-68
2023/06/08 02:31:39;;;;;;;18.90;8.30;;;11.70;99.90;;;;;;5017747;28;20033;-68
2023/06/08 02:34:05;;;;;;;20.60;7.50;;;11.70;99.90;;;;;;5016795;28;20663;-68
2023/06/08 02:36:31;;;;;;;21.23;8.00;;;11.70;99.90;;;;;;5016457;28;20081;-68
2023/06/08 02:38:58;;;;;;;20.63;8.23;;;11.70;99.90;;;;;;5017416;28;20594;-68
2023/06/08 02:41:23;;;;;;;23.90;7.40;;;11.70;99.90;;;;;;5031113;28;20054;-69
2023/06/08 02:43:49;;;;;;;14.88;7.07;;;11.70;99.90;;;;;;5015931;28;20095;-69
2023/06/08 02:46:15;;;;;;;20.25;8.50;;;11.70;99.90;;;;;;5024370;28;20059;-69
2023/06/08 02:48:40;;;;;;;16.90;8.00;;;11.70;99.90;;;;;;5018199;28;20045;-69
2023/06/08 02:51:06;;;;;;;16.30;7.07;;;11.70;99.90;;;;;;5015225;28;20049;-69
2023/06/08 02:53:32;;;;;;;22.45;8.10;;;11.70;99.90;;;;;;5013403;28;20042;-69
2023/06/08 02:55:58;;;;;;;16.10;7.68;;;11.70;99.90;;;;;;5014501;28;20148;-69
2023/06/08 02:58:24;;;;;;;17.35;7.95;;;11.70;99.90;;;;;;5013349;28;20573;-69
2023/06/08 03:00:53;;;;;;;23.85;8.65;;;11.80;99.90;;;;;;5015526;28;20045;-69
2023/06/08 03:03:23;;;;;;;18.63;8.00;;;11.80;99.90;;;;;;5018300;28;20037;-68
2023/06/08 03:05:58;;;;;;;20.75;8.02;;;11.70;99.90;;;;;;5010474;28;20149;-68
2023/06/08 03:08:25;;;;;;;17.52;7.53;;;11.70;99.90;;;;;;5016269;28;20512;-69
2023/06/08 03:10:51;;;;;;;18.15;8.50;;;11.70;99.90;;;;;;5017432;28;20045;-69
2023/06/08 03:13:17;;;;;;;19.90;7.18;;;11.70;99.90;;;;;;5017280;28;20056;-69
2023/06/08 03:15:44;;;;;;;19.95;7.82;;;11.70;99.90;;;;;;5005521;28;20857;-69
2023/06/08 03:18:10;;;;;;;18.27;8.30;;;11.70;99.90;;;;;;5030963;28;20053;-69
2023/06/08 03:20:37;;;;;;;20.65;7.38;;;11.80;99.90;;;;;;5031053;28;20402;-69
2023/06/08 03:23:04;;;;;;;20.52;7.35;;;11.70;99.90;;;;;;5002394;28;20383;-69
2023/06/08 03:25:30;;;;;;;22.17;7.05;;;11.70;99.90;;;;;;5015131;28;20053;-69
2023/06/08 03:27:56;;;;;;;22.40;6.95;;;11.70;99.90;;;;;;5015983;28;20042;-69
2023/06/08 03:30:21;;;;;;;16.35;7.22;;;11.70;99.90;;;;;;5014510;28;20044;-69
2023/06/08 03:32:52;;;;;;;20.23;7.10;;;11.70;99.90;;;;;;5014368;28;20041;-68
2023/06/08 03:35:18;;;;;;;24.67;6.78;;;11.70;99.90;;;;;;5015887;28;20038;-68
2023/06/08 03:37:44;;;;;;;20.60;6.90;;;11.70;99.90;;;;;;5012397;28;20049;-69
2023/06/08 03:40:10;;;;;;;19.90;7.25;;;11.70;99.90;;;;;;5009482;28;20569;-69
2023/06/08 03:42:36;;;;;;;23.33;7.30;;;11.80;99.90;;;;;;5012844;28;20046;-68
2023/06/08 03:45:02;;;;;;;16.95;6.35;;;11.80;99.90;;;;;;5030624;28;20127;-69
2023/06/08 03:47:28;;;;;;;21.83;6.82;;;11.70;99.90;;;;;;5015911;28;20521;-68
2023/06/08 03:49:54;;;;;;;17.10;6.63;;;11.70;99.90;;;;;;5015746;28;20061;-69
2023/06/08 03:52:19;;;;;;;19.40;6.80;;;11.80;99.90;;;;;;5014193;28;20033;-69
2023/06/08 03:54:45;;;;;;;19.15;6.15;;;11.70;99.90;;;;;;5017921;28;20456;-69
2023/06/08 03:57:11;;;;;;;13.25;6.32;;;11.70;99.90;;;;;;5015919;28;20100;-69
2023/06/08 03:59:38;;;;;;;20.13;7.18;;;11.70;99.90;;;;;;5013438;28;20753;-69
2023/06/08 04:02:04;;;;;;;20.67;6.18;;;11.70;99.90;;;;;;5016052;28;20033;-69
2023/06/08 04:04:30;;;;;;;17.70;6.15;;;11.70;99.90;;;;;;5019836;28;20041;-69
2023/06/08 04:07:00;;;;;;;20.38;6.43;;;11.70;99.90;;;;;;5017685;28;20042;-69
2023/06/08 04:09:29;;;;;;;16.48;5.95;;;11.70;99.90;;;;;;5019258;28;20056;-69
2023/06/08 04:11:56;;;;;;;16.88;6.65;;;11.70;99.90;;;;;;5017104;28;20046;-68
2023/06/08 04:14:22;;;;;;;16.20;5.70;;;12.10;99.90;;;;;;5016389;28;20041;-69
2023/06/08 04:16:48;;;;;;;18.48;5.88;;;11.70;99.90;;;;;;5033289;28;20046;-69
2023/06/08 04:19:14;;;;;;;15.90;5.93;;;11.70;99.90;;;;;;5018395;28;20038;-69
2023/06/08 04:21:40;;;;;;;20.17;6.60;;;11.70;99.90;;;;;;5017327;28;20437;-68
2023/06/08 04:24:05;;;;;;;19.98;6.80;;;11.70;99.90;;;;;;5000283;28;20055;-68
2023/06/08 04:26:32;;;;;;;20.38;5.97;;;11.80;99.90;;;;;;5016512;28;20571;-68
2023/06/08 04:28:58;;;;;;;19.23;5.80;;;11.80;99.90;;;;;;5015349;28;20139;-69
2023/06/08 04:31:23;;;;;;;15.55;5.80;;;11.80;99.90;;;;;;4996957;28;20100;-69
2023/06/08 04:33:49;;;;;;;18.00;6.28;;;11.80;99.90;;;;;;5015860;28;20842;-69
2023/06/08 04:36:16;;;;;;;19.73;6.13;;;11.80;99.90;;;;;;5011386;28;20506;-68
2023/06/08 04:38:42;;;;;;;21.13;5.88;;;11.80;99.90;;;;;;5026252;28;20045;-68
2023/06/08 04:41:08;;;;;;;16.17;4.93;;;11.80;99.90;;;;;;5010902;28;20037;-69
2023/06/08 04:43:34;;;;;;;20.15;6.22;;;11.80;99.90;;;;;;5006886;28;20542;-68
2023/06/08 04:46:04;;;;;;;25.98;6.03;;;11.80;99.90;;;;;;5007133;28;20072;-69
2023/06/08 04:48:33;;;;;;;18.92;5.90;;;11.80;99.90;;;;;;5007962;28;20120;-69
2023/06/08 04:51:03;;;;;;;16.67;5.38;;;11.80;99.90;;;;;;5008707;28;20107;-69
2023/06/08 04:53:33;;;;;;;13.77;5.80;;;11.80;99.90;;;;;;4989261;28;20807;-68
2023/06/08 04:56:01;;;;;;;21.88;7.13;;;11.80;99.90;;;;;;5008193;28;20049;-68
2023/06/08 04:58:27;;;;;;;18.80;6.38;;;11.80;99.90;;;;;;5006746;28;20505;-69
2023/06/08 05:00:54;;;;;;;21.65;5.93;;;11.90;99.90;;;;;;5003729;28;20663;-68
2023/06/08 05:03:21;;;;;;;15.85;5.95;;;11.90;99.90;;;;;;5004231;28;20402;-69
2023/06/08 05:05:47;;;;;;;19.00;6.00;;;11.90;99.90;;;;;;5010537;28;20465;-69
2023/06/08 05:08:12;;;;;;;15.57;5.28;;;11.80;99.90;;;;;;5020661;28;20034;-68
2023/06/08 05:10:38;;;;;;;16.52;5.70;;;11.90;99.90;;;;;;5020700;28;20041;-69
2023/06/08 05:13:04;;;;;;;15.27;5.40;;;11.90;99.90;;;;;;5018976;28;20046;-70
2023/06/08 05:15:33;;;;;;;17.55;5.47;;;11.90;99.90;;;;;;4999778;28;20520;-69
2023/06/08 05:17:59;;;;;;;21.35;5.85;;;11.90;99.90;;;;;;5003042;28;20050;-70
2023/06/08 05:20:26;;;;;;;19.63;6.40;;;12.00;99.90;;;;;;4986489;28;20061;-70
2023/06/08 05:22:52;;;;;;;17.50;6.07;;;12.00;99.90;;;;;;5013292;28;20072;-69
2023/06/08 05:25:18;;;;;;;15.38;6.60;;;12.00;99.90;;;;;;5014595;28;20876;-69
2023/06/08 05:27:44;;;;;;;25.00;6.72;;;12.10;99.90;;;;;;5011420;28;20167;-69
2023/06/08 05:30:11;;;;;;;21.13;6.97;;;12.10;99.90;;;;;;4996522;28;20494;-69
2023/06/08 05:32:37;;;;;;;19.02;6.10;;;12.10;99.90;;;;;;5010163;28;20755;-69
2023/06/08 05:35:03;;;;;;;21.48;6.25;;;12.10;99.90;;;;;;5026269;28;20124;-69
2023/06/08 05:37:29;;;;;;;18.25;6.18;;;12.20;99.90;;;;;;5011965;28;20030;-70
2023/06/08 05:39:56;;;;;;;18.42;6.50;;;12.10;99.90;;;;;;5016395;28;21996;-70
2023/06/08 05:42:21;;;;;;;22.50;6.15;;;12.20;99.90;;;;;;5016346;28;20621;-70
2023/06/08 05:44:47;;;;;;;18.42;5.85;;;12.20;99.90;;;;;;5014416;28;20463;-70
2023/06/08 05:47:16;;;;;;;20.13;5.55;;;12.20;99.90;;;;;;5007681;28;20049;-69
2023/06/08 05:49:42;;;;;;;15.98;5.55;;;12.20;99.90;;;;;;5013535;28;20050;-70
2023/06/08 05:52:08;;;;;;;21.67;5.43;;;12.30;99.90;;;;;;5014585;28;20067;-69
2023/06/08 05:54:33;;;;;;;18.17;5.22;;;12.30;99.90;;;;;;5013955;28;20054;-70
2023/06/08 05:57:00;;;;;;;22.38;6.32;;;12.30;99.90;;;;;;5008563;28;20050;-70
2023/06/08 05:59:26;;;;;;;18.52;6.43;;;12.40;99.90;;;;;;5015037;28;20046;-69
2023/06/08 06:01:52;;;;;;;18.90;6.15;;;12.30;99.90;;;;;;5000122;28;20096;-69
2023/06/08 06:04:18;;;;;;;21.33;6.90;;;12.40;99.90;;;;;;4997057;28;20124;-70
2023/06/08 06:06:44;;;;;;;20.75;5.78;;;12.40;99.90;;;;;;5021100;28;20172;-70
2023/06/08 06:09:11;;;;;;;18.75;6.20;;;12.70;99.90;;;;;;5013852;28;20052;-70
2023/06/08 06:11:37;;;;;;;20.13;6.13;;;12.50;99.90;;;;;;5014402;28;20041;-70
2023/06/08 06:14:03;;;;;;;20.20;6.28;;;12.50;99.90;;;;;;5016480;28;20048;-70
2023/06/08 06:16:28;;;;;;;17.58;6.07;;;12.70;99.90;;;;;;5012070;28;20041;-70
2023/06/08 06:18:54;;;;;;;20.08;5.82;;;12.60;99.90;;;;;;4993789;28;21662;-70
2023/06/08 06:21:20;;;;;;;17.05;5.32;;;12.70;99.90;;;;;;5015305;28;20049;-70
2023/06/08 06:23:46;;;;;;;13.25;4.22;;;12.70;99.90;;;;;;5022346;28;20044;-69
2023/06/08 06:26:12;;;;;;;17.98;6.00;;;13.00;99.90;;;;;;5020652;28;20044;-69
2023/06/08 06:28:40;;;;;;;19.48;5.10;;;12.80;99.90;;;;;;5016884;28;20065;-69
2023/06/08 06:31:06;;;;;;;19.27;5.10;;;12.80;99.90;;;;;;5015303;28;20059;-69
2023/06/08 06:33:32;;;;;;;15.63;4.50;;;12.80;99.90;;;;;;5020009;28;20037;-69
2023/06/08 06:35:58;;;;;;;16.48;4.65;;;12.90;99.90;;;;;;5016352;28;20321;-69
2023/06/08 06:38:24;;;;;;;15.70;4.57;;;12.90;99.90;;;;;;5018145;28;20050;-68
2023/06/08 06:40:52;;;;;;;16.63;5.43;;;13.10;99.90;;;;;;5016464;28;20049;-68
2023/06/08 06:43:24;;;;;;;19.00;5.03;;;13.00;99.90;;;;;;5014556;28;20063;-69
2023/06/08 06:45:50;;;;;;;;;;;13.00;99.90;;;;;;5021129;28;20100;-68
2023/06/08 06:48:22;;;;;;;17.95;4.85;;;13.10;99.90;;;;;;5018908;28;20966;-68
2023/06/08 06:50:48;;;;;;;17.67;5.32;;;13.20;99.90;;;;;;5021121;28;20128;-68
2023/06/08 06:53:14;;;;;;;18.00;5.25;;;13.30;99.90;;;;;;5015181;28;20456;-68
2023/06/08 06:55:41;;;;;;;15.50;5.20;;;13.30;99.90;;;;;;5021166;28;20220;-69
2023/06/08 06:58:07;;;;;;;22.27;4.95;;;13.40;99.90;;;;;;5014543;28;20049;-69
2023/06/08 07:00:37;;;;;;;16.33;5.18;;;13.40;99.90;;;;;;5016375;28;20033;-68
2023/06/08 07:03:04;;;;;;;20.67;5.03;;;13.40;99.90;;;;;;5017789;28;20049;-68
2023/06/08 07:05:30;;;;;;;20.48;5.38;;;13.50;99.90;;;;;;5000933;28;20831;-68
2023/06/08 07:07:55;;;;;;;16.50;4.78;;;13.50;99.90;;;;;;5013648;28;20045;-69
2023/06/08 07:10:21;;;;;;;22.40;5.18;;;13.60;99.90;;;;;;5021238;28;20124;-69
2023/06/08 07:12:47;;;;;;;12.68;4.50;;;13.70;99.90;;;;;;5005289;28;20830;-69
2023/06/08 07:15:13;;;;;;;16.85;4.97;;;13.70;99.90;;;;;;5004563;28;20049;-69
2023/06/08 07:17:39;;;;;;;16.05;5.10;;;13.80;99.90;;;;;;5023696;28;20583;-69
2023/06/08 07:20:06;;;;;;;16.30;5.70;;;13.90;99.90;;;;;;5024377;28;20045;-69
2023/06/08 07:22:31;;;;;;;14.60;5.13;;;14.10;99.90;;;;;;5006354;28;20127;-69
2023/06/08 07:24:58;;;;;;;16.13;4.72;;;14.10;99.90;;;;;;5024384;28;20054;-69
2023/06/08 07:27:23;;;;;;;15.35;5.55;;;14.20;99.90;;;;;;5016591;28;20125;-70
2023/06/08 07:29:49;;;;;;;17.40;4.78;;;14.40;99.90;;;;;;5023005;28;20045;-69
2023/06/08 07:32:15;;;;;;;18.35;5.32;;;14.50;99.90;;;;;;5003439;28;20270;-70
2023/06/08 07:34:41;;;;;;;13.55;4.53;;;14.60;99.90;;;;;;5018749;28;20056;-68
2023/06/08 07:37:07;;;;;;;17.80;5.97;;;14.60;99.90;;;;;;5003112;28;20049;-69
2023/06/08 07:39:32;;;;;;;16.08;5.28;;;14.70;99.90;;;;;;5022911;28;20076;-70
2023/06/08 07:41:58;;;;;;;15.63;4.40;;;14.70;99.90;;;;;;5018310;28;20498;-69
2023/06/08 07:44:24;;;;;;;15.85;5.32;;;14.80;99.90;;;;;;5011135;28;20057;-70
2023/06/08 07:46:49;;;;;;;14.45;5.07;;;14.90;99.90;;;;;;5012505;28;20050;-69
2023/06/08 07:49:15;;;;;;;15.75;4.80;;;15.00;99.90;;;;;;4996686;28;20041;-70
2023/06/08 07:51:41;;;;;;;19.08;5.47;;;15.10;99.90;;;;;;5017666;28;20081;-70
2023/06/08 07:54:07;;;;;;;16.58;4.57;;;15.10;99.90;;;;;;5008037;28;20046;-69
2023/06/08 07:56:32;;;;;;;14.25;4.53;;;15.20;99.90;;;;;;5013780;28;20049;-69
2023/06/08 07:58:58;;;;;;;15.45;5.95;;;15.30;99.90;;;;;;5020867;28;20045;-69
2023/06/08 08:01:24;;;;;;;17.25;4.75;;;15.40;99.90;;;;;;5013320;28;20124;-69
2023/06/08 08:03:51;;;;;;;20.50;5.32;;;15.50;99.90;;;;;;5017830;28;20453;-70
2023/06/08 08:06:17;;;;;;;12.88;4.90;;;15.50;99.90;;;;;;5013106;28;20037;-70
2023/06/08 08:08:43;;;;;;;16.38;5.60;;;15.50;99.90;;;;;;5018132;28;20046;-70
2023/06/08 08:11:09;;;;;;;18.02;5.65;;;15.50;99.90;;;;;;5015029;28;20869;-69
2023/06/08 08:13:35;;;;;;;21.63;6.28;;;15.70;99.90;;;;;;5012799;28;20060;-69
2023/06/08 08:16:00;;;;;;;18.70;6.03;;;15.70;99.90;;;;;;5014935;28;20037;-69
2023/06/08 08:18:26;;;;;;;19.48;6.22;;;15.80;99.90;;;;;;5021639;28;20052;-69
2023/06/08 08:20:52;;;;;;;15.50;5.85;;;15.90;99.90;;;;;;5015551;28;20118;-70
2023/06/08 08:23:17;;;;;;;16.63;5.13;;;15.90;99.90;;;;;;5015264;28;20402;-70
2023/06/08 08:25:43;;;;;;;13.20;5.30;;;16.00;99.90;;;;;;5019454;28;20084;-69
2023/06/08 08:28:09;;;;;;;16.17;5.60;;;16.10;99.90;;;;;;5022202;28;20070;-70
2023/06/08 08:30:35;;;;;;;16.60;4.82;;;16.10;99.90;;;;;;5020707;28;20045;-70
2023/06/08 08:33:01;;;;;;;14.05;5.10;;;16.20;99.90;;;;;;5025657;28;20033;-70
2023/06/08 08:35:29;;;;;;;15.60;5.38;;;16.30;99.90;;;;;;5019514;28;20413;-70
2023/06/08 08:37:57;;;;;;;13.60;4.63;;;16.30;99.90;;;;;;5011392;28;20049;-71
2023/06/08 08:40:24;;;;;;;15.70;4.80;;;16.40;99.90;;;;;;5007720;28;20096;-71
2023/06/08 08:43:09;;;;;;;16.60;5.28;;;16.40;99.90;;;;;;5010371;28;20054;-71
2023/06/08 08:45:38;;;;;;;16.05;4.57;;;16.50;99.90;;;;;;5013897;28;20128;-70
2023/06/08 08:48:07;;;;;;;16.88;4.72;;;16.60;99.90;;;;;;5006973;28;20122;-71
2023/06/08 08:50:38;;;;;;;16.67;3.90;;;16.60;99.90;;;;;;5016038;28;20120;-71
2023/06/08 08:53:06;;;;;;;18.90;4.78;;;16.60;99.90;;;;;;5027860;28;20091;-70
2023/06/08 08:55:33;;;;;;;12.07;4.25;;;16.70;99.90;;;;;;5004456;28;20044;-70
2023/06/08 08:58:03;;;;;;;17.25;4.63;;;16.80;99.90;;;;;;5013085;28;20057;-72
2023/06/08 09:00:32;;;;;;;16.77;4.47;;;16.80;99.90;;;;;;5016414;28;20386;-70
2023/06/08 09:03:01;;;;;;;14.95;4.85;;;16.80;99.90;;;;;;5013072;28;20045;-70
2023/06/08 09:05:27;;;;;;;20.52;4.47;;;16.90;99.90;;;;;;4995912;28;20052;-71
2023/06/08 09:07:57;;;;;;;13.68;4.05;;;16.90;99.90;;;;;;5014006;28;20054;-71
2023/06/08 09:10:25;;;;;;;9.55;4.03;;;17.00;99.90;;;;;;5017636;28;20041;-70
2023/06/08 09:12:53;;;;;;;19.20;5.50;;;17.00;99.90;;;;;;5008642;28;20049;-70
2023/06/08 09:15:27;;;;;;;16.95;4.75;;;17.00;99.90;;;;;;5012124;28;20560;-69
2023/06/08 09:17:55;;;;;;;17.80;5.05;;;17.00;99.90;;;;;;5011472;28;20092;-69
2023/06/08 09:20:34;;;;;;;14.73;4.82;;;17.00;99.90;;;;;;4996113;28;20044;-69
2023/06/08 09:23:24;;;;;;;11.32;4.80;;;17.10;99.90;;;;;;5017741;28;20469;-70
2023/06/08 09:25:52;;;;;;;15.70;4.45;;;17.20;99.90;;;;;;5013521;28;20045;-70
2023/06/08 09:28:22;;;;;;;14.05;4.65;;;17.20;99.90;;;;;;5009586;28;20546;-69
2023/06/08 09:30:51;;;;;;;15.37;4.50;;;17.20;99.90;;;;;;5018248;28;20203;-70
2023/06/08 09:33:27;;;;;;;12.77;4.70;;;17.40;99.90;;;;;;5015095;28;20296;-70
2023/06/08 09:35:59;;;;;;;11.68;4.20;;;17.40;99.90;;;;;;5020919;28;20046;-70
2023/06/08 09:38:30;;;;;;;16.42;4.45;;;17.50;99.90;;;;;;5019737;28;20053;-70
2023/06/08 09:41:16;;;;;;;13.23;4.70;;;17.50;99.90;;;;;;5025028;28;20056;-70
2023/06/08 09:43:43;;;;;;;11.40;4.35;;;17.50;99.90;;;;;;5015490;28;20041;-70
2023/06/08 09:46:16;;;;;;;13.60;4.20;;;17.60;99.90;;;;;;5018432;28;20057;-70
2023/06/08 09:48:53;;;;;;;8.85;3.83;;;17.60;99.90;;;;;;5006649;28;20045;-70
2023/06/08 09:51:21;;;;;;;12.88;3.72;;;17.60;99.90;;;;;;5023883;28;20053;-71
2023/06/08 09:53:55;;;;;;;14.57;4.00;;;17.70;99.90;;;;;;5018837;28;20376;-70
2023/06/08 09:56:26;;;;;;;11.80;3.47;;;17.70;99.90;;;;;;5020604;28;20045;-71
2023/06/08 09:58:53;;;;;;;14.90;4.03;;;17.70;99.90;;;;;;5022924;28;20128;-69
2023/06/08 10:01:53;;;;;;;14.05;4.60;;;17.60;99.90;;;;;;5021593;28;20104;-70
2023/06/08 10:04:31;;;;;;;15.23;3.95;;;17.70;99.90;;;;;;5031754;28;20077;-70
2023/06/08 10:07:01;;;;;;;13.18;3.50;;;17.70;99.90;;;;;;5024738;28;20073;-70
2023/06/08 10:09:29;;;;;;;17.13;4.10;;;17.80;99.90;;;;;;5022161;28;20175;-70
2023/06/08 10:11:56;;;;;;;13.68;3.97;;;17.90;99.90;;;;;;5023621;28;20110;-71
2023/06/08 10:14:26;;;;;;;16.42;3.85;;;17.90;99.90;;;;;;5026155;28;20135;-69
2023/06/08 10:16:53;;;;;;;12.52;3.80;;;17.80;99.90;;;;;;5020194;28;20073;-70
2023/06/08 10:19:20;;;;;;;13.10;3.67;;;17.90;99.90;;;;;;5018683;28;20069;-70
2023/06/08 10:21:48;;;;;;;9.93;3.72;;;17.90;99.90;;;;;;5027786;28;20048;-70
2023/06/08 10:24:15;;;;;;;10.45;3.53;;;17.90;99.90;;;;;;4996627;28;20037;-70
2023/06/08 10:26:41;;;;;;;12.38;3.15;;;18.00;99.90;;;;;;5024182;28;20226;-70
2023/06/08 10:29:10;;;;;;;11.27;3.60;;;17.90;99.90;;;;;;5020201;28;20128;-70
2023/06/08 10:31:39;;;;;;;10.45;3.60;;;18.00;99.90;;;;;;5021339;28;20049;-70
2023/06/08 10:34:08;;;;;;;14.77;3.80;;;18.10;99.90;;;;;;5019265;28;20041;-70
2023/06/08 10:36:36;;;;;;;10.75;3.70;;;18.10;99.90;;;;;;5040109;28;20116;-70
2023/06/08 10:39:10;;;;;;;12.70;3.85;;;18.10;99.90;;;;;;5002789;28;20053;-70
2023/06/08 10:41:52;;;;;;;13.23;4.32;;;18.10;99.90;;;;;;5024791;28;20083;-70
2023/06/08 10:44:40;;;;;;;15.68;5.25;;;18.10;99.90;;;;;;5005775;28;20088;-70
2023/06/08 10:47:12;;;;;;;18.25;5.47;;;18.20;99.90;;;;;;5034761;28;20053;-71
2023/06/08 10:49:46;;;;;;;15.55;5.10;;;18.20;99.90;;;;;;5020669;28;20445;-70
2023/06/08 10:52:18;;;;;;;16.45;5.40;;;18.20;99.90;;;;;;5023473;28;20724;-71
2023/06/08 10:54:55;;;;;;;14.45;5.53;;;18.20;99.90;;;;;;5022215;28;20076;-70
2023/06/08 10:57:39;;;;;;;21.40;5.07;;;18.30;99.90;;;;;;5021460;28;20042;-71
2023/06/08 11:00:28;;;;;;;15.85;4.43;;;18.30;99.90;;;;;;5016303;28;20156;-70
2023/06/08 11:03:06;;;;;;;12.73;4.18;;;18.30;99.90;;;;;;5020467;28;20049;-70
2023/06/08 11:05:33;;;;;;;13.02;3.70;;;18.30;99.90;;;;;;5019433;28;20099;-71
2023/06/08 11:08:00;;;;;;;15.23;4.07;;;18.40;99.90;;;;;;5009516;28;20050;-71
2023/06/08 11:10:26;;;;;;;21.25;4.47;;;18.30;99.90;;;;;;5017546;28;20077;-71
2023/06/08 11:12:53;;;;;;;16.95;5.03;;;18.30;99.90;;;;;;5018042;28;20065;-70
2023/06/08 11:15:19;;;;;;;15.77;4.72;;;18.40;99.90;;;;;;5006478;28;20721;-71
2023/06/08 11:17:52;;;;;;;19.40;5.47;;;18.40;99.90;;;;;;5024363;28;20206;-71
2023/06/08 11:20:27;;;;;;;14.02;5.05;;;18.40;99.90;;;;;;5020625;28;20111;-71
2023/06/08 11:22:53;;;;;;;11.50;4.40;;;18.40;99.90;;;;;;5021312;28;20061;-70
2023/06/08 11:25:19;;;;;;;12.70;4.43;;;18.40;99.90;;;;;;5021633;28;20501;-70
2023/06/08 11:27:45;;;;;;;13.98;4.10;;;18.40;99.90;;;;;;5024256;28;20056;-71
2023/06/08 11:30:22;;;;;;;10.98;3.80;;;18.40;99.90;;;;;;5019495;28;20054;-71
2023/06/08 11:32:49;;;;;;;15.57;4.45;;;18.40;99.90;;;;;;5016072;28;20087;-70
2023/06/08 11:35:18;;;;;;;12.77;4.10;;;18.40;99.90;;;;;;5021605;28;20600;-70
2023/06/08 11:37:44;;;;;;;16.23;4.63;;;18.50;99.90;;;;;;5023063;28;20046;-70
2023/06/08 11:40:14;;;;;;;11.50;4.18;;;18.60;99.90;;;;;;5023511;28;20041;-70
2023/06/08 11:42:41;;;;;;;14.88;3.92;;;18.60;99.90;;;;;;5036728;28;20379;-70
2023/06/08 11:45:09;;;;;;;21.85;4.30;;;18.60;99.90;;;;;;5004879;28;20468;-70
2023/06/08 11:47:36;;;;;;;10.18;3.60;;;18.60;99.90;;;;;;5034721;28;20325;-70
2023/06/08 11:50:03;;;;;;;16.50;3.70;;;18.60;99.90;;;;;;5022692;28;20065;-70
2023/06/08 11:52:33;;;;;;;13.95;4.13;;;18.60;99.90;;;;;;5024754;28;20446;-71
2023/06/08 11:55:01;;;;;;;12.50;3.27;;;18.70;99.90;;;;;;5021340;28;20128;-70
2023/06/08 11:57:45;;;;;;;10.95;3.40;;;18.70;99.90;;;;;;5018722;28;20041;-70
2023/06/08 12:00:16;;;;;;;10.88;3.35;;;18.70;99.90;;;;;;5007835;28;20121;-70
2023/06/08 12:02:42;;;;;;;13.10;3.88;;;18.80;99.90;;;;;;5020399;28;20057;-70
2023/06/08 12:05:15;;;;;;;10.45;3.47;;;18.80;99.90;;;;;;5021220;28;20052;-71
2023/06/08 12:07:55;;;;;;;13.13;4.07;;;18.90;99.90;;;;;;5017906;28;20492;-68
2023/06/08 12:10:30;;;;;;;16.48;4.07;;;18.90;99.90;;;;;;5022300;28;20102;-70
2023/06/08 12:12:56;;;;;;;15.25;4.03;;;18.90;99.90;;;;;;5024918;28;20120;-70
2023/06/08 12:15:22;;;;;;;13.38;4.43;;;18.90;99.90;;;;;;5021707;28;20128;-69
2023/06/08 12:17:48;;;;;;;18.15;4.15;;;19.00;99.90;;;;;;5006085;28;20140;-71
2023/06/08 12:20:15;;;;;;;12.98;4.18;;;18.90;99.90;;;;;;5003050;28;20133;-71
2023/06/08 12:22:41;;;;;;;11.32;3.47;;;19.00;99.90;;;;;;4990689;28;20847;-70
2023/06/08 12:25:07;;;;;;;9.85;3.60;;;18.90;99.90;;;;;;5003661;28;20041;-70
2023/06/08 12:27:37;;;;;;;8.85;3.35;;;19.00;99.90;;;;;;5009288;28;20140;-70
2023/06/08 12:30:04;;;;;;;17.27;4.05;;;18.90;99.90;;;;;;4992789;28;20050;-70
2023/06/08 12:32:31;;;;;;;17.02;4.38;;;18.90;99.90;;;;;;5004418;28;20041;-74
2023/06/08 12:34:59;;;;;;;12.65;4.00;;;18.90;99.90;;;;;;5011091;28;20053;-74
2023/06/08 12:37:25;;;;;;;11.30;2.97;;;18.90;99.90;;;;;;5008941;28;20045;-74
2023/06/08 12:39:52;;;;;;;10.85;3.20;;;18.80;99.90;;;;;;4991080;28;20569;-74
2023/06/08 12:42:19;;;;;;;15.52;4.40;;;18.90;99.90;;;;;;4998895;28;20053;-74